Thomas G. Thompson — KTDQ — position and weather

sailwx.info

Track history (hours):
 
Tides and Currents Weather Stations Pressure Air Temp Water Temp Dewpoint Dewpoint Depression Visibility Wind Speed Wind Dir Waves Ship Positions

Oceanographic research ship Thomas G. Thompson (USA)

Ship's website: http://www.ocean.washington.edu/vessels/TGT/tgt.html

Detailed information on ship capabilities available from University of Delaware's Ocean Information Center.

Owner: UNIVERSITY OF WASHINGTON, SEATTLE, WA. More information available from US FCC via Universal Licensing System and Coast Guard Vessel Documentation Center.

Last reported at 2020-Jan-19 01:00 UTC. Time now 2020-Jan-19 01:42 UTC.
Position S 33°52' E 018°26'.

Type: Other ship. MMSI: 366345000.

Date/timePositionNaut miles runAvg speedWind from/ knotsBaromVisibWave heightAir tempDewpointWater temp
2020-Jan-19 01:00S 33°52' E 018°26'0 0.0
2020-Jan-19 00:30S 33°52' E 018°26'0 0.0
2020-Jan-18 22:01S 33°52' E 018°26'0 0.0
2020-Jan-18 21:31S 33°52' E 018°26'0 0.0
2020-Jan-18 20:30S 33°52' E 018°26'0 0.0
2020-Jan-18 19:30S 33°52' E 018°26'0 0.0
2020-Jan-18 18:01S 33°52' E 018°26'0 0.0
2020-Jan-18 17:31S 33°52' E 018°26'0 0.0
2020-Jan-18 16:31S 33°52' E 018°26'0 0.0
2020-Jan-18 15:31S 33°52' E 018°26'0 0.0
2020-Jan-18 15:00S 33°52' E 018°26'0 0.0
2020-Jan-18 13:31S 33°52' E 018°26'17 5.7
2020-Jan-18 10:31S 34°05' E 018°13'2 4.4
2020-Jan-18 10:00S 34°07' E 018°12'22710.3
2020-Jan-17 12:00S 37°30' E 016°06'   160 / 201020.710.8 17.511.121.0
2020-Jan-09 19:00S 34°19' E 018°07'0 0.0
2020-Jan-09 17:30S 34°19' E 018°07'32 9.4
2020-Jan-09 14:07S 33°51' E 018°24'4 0.8
2020-Jan-09 09:29S 33°54' E 018°26'0 0.0
2020-Jan-09 08:59S 33°54' E 018°26'0 0.0
2020-Jan-09 08:30S 33°54' E 018°26'0 0.0
2020-Jan-09 03:30S 33°54' E 018°26'0 0.0
2020-Jan-09 02:30S 33°54' E 018°26'  
Track history (hours):
 
Tides and Currents Weather Stations Pressure Air Temp Water Temp Dewpoint Dewpoint Depression Visibility Wind Speed Wind Dir Waves Ship Positions

Oceanographic research ship Thomas G. Thompson (USA)

Ship's website: http://www.ocean.washington.edu/vessels/TGT/tgt.html

Detailed information on ship capabilities available from University of Delaware's Ocean Information Center.

Owner: UNIVERSITY OF WASHINGTON, SEATTLE, WA. More information available from US FCC via Universal Licensing System and Coast Guard Vessel Documentation Center.

Last reported at 2020-Jan-19 01:00 UTC. Time now 2020-Jan-19 01:42 UTC.
Position S 33°52' E 018°26'.

Type: Other ship. MMSI: 366345000.

Date/timePositionNaut miles runAvg speedWind from/ knotsBaromVisibWave heightAir tempDewpointWater temp
2020-Jan-19 01:00S 33°52' E 018°26'0 0.0
2020-Jan-19 00:30S 33°52' E 018°26'0 0.0
2020-Jan-18 22:01S 33°52' E 018°26'0 0.0
2020-Jan-18 21:31S 33°52' E 018°26'0 0.0
2020-Jan-18 20:30S 33°52' E 018°26'0 0.0
2020-Jan-18 19:30S 33°52' E 018°26'0 0.0
2020-Jan-18 18:01S 33°52' E 018°26'0 0.0
2020-Jan-18 17:31S 33°52' E 018°26'0 0.0
2020-Jan-18 16:31S 33°52' E 018°26'0 0.0
2020-Jan-18 15:31S 33°52' E 018°26'0 0.0
2020-Jan-18 15:00S 33°52' E 018°26'0 0.0
2020-Jan-18 13:31S 33°52' E 018°26'17 5.7
2020-Jan-18 10:31S 34°05' E 018°13'2 4.4
2020-Jan-18 10:00S 34°07' E 018°12'22710.3
2020-Jan-17 12:00S 37°30' E 016°06'   160 / 201020.710.8 17.511.121.0
2020-Jan-09 19:00S 34°19' E 018°07'0 0.0
2020-Jan-09 17:30S 34°19' E 018°07'32 9.4
2020-Jan-09 14:07S 33°51' E 018°24'4 0.8
2020-Jan-09 09:29S 33°54' E 018°26'0 0.0
2020-Jan-09 08:59S 33°54' E 018°26'0 0.0
2020-Jan-09 08:30S 33°54' E 018°26'0 0.0
2020-Jan-09 03:30S 33°54' E 018°26'0 0.0
2020-Jan-09 02:30S 33°54' E 018°26'  

Dump ship's entire track history